createdAt,value
2017-12-24T00:00:36.300Z,0
2017-12-24T00:01:17.599Z,0
2017-12-24T00:01:57.828Z,0
2017-12-24T00:02:38.528Z,0
2017-12-24T00:03:18.969Z,0
2017-12-24T00:03:59.489Z,0
2017-12-24T00:04:40.525Z,0
2017-12-24T00:05:20.741Z,0
2017-12-24T00:06:01.337Z,0
2017-12-24T00:06:42.262Z,0
2017-12-24T00:07:23.825Z,0
2017-12-24T00:08:04.551Z,0
2017-12-24T00:08:45.371Z,0
2017-12-24T00:09:26.290Z,0
2017-12-24T00:10:07.774Z,0
2017-12-24T00:13:43.173Z,0
2017-12-24T00:14:23.724Z,0
2017-12-24T00:15:04.952Z,0
2017-12-24T00:15:46.190Z,0
2017-12-24T00:16:26.562Z,0
2017-12-24T00:17:08.384Z,0
2017-12-24T00:17:48.834Z,0
2017-12-24T00:18:29.407Z,0
2017-12-24T00:19:10.747Z,0
2017-12-24T00:19:51.485Z,0
2017-12-24T00:20:31.687Z,0
2017-12-24T00:21:12.678Z,0
2017-12-24T00:21:53.428Z,0
2017-12-24T00:22:33.772Z,0
2017-12-24T00:23:14.586Z,0
2017-12-24T00:23:55.493Z,0
2017-12-24T00:24:36.979Z,0
2017-12-24T00:25:17.779Z,0
2017-12-24T00:25:58.689Z,0
2017-12-24T00:26:39.463Z,0
2017-12-24T00:27:20.187Z,0
2017-12-24T00:28:00.548Z,0
2017-12-24T00:28:43.961Z,0
2017-12-24T00:29:24.639Z,0
2017-12-24T00:30:05.774Z,0
2017-12-24T00:30:46.343Z,0
2017-12-24T00:31:27.019Z,0
2017-12-24T00:32:08.015Z,0
2017-12-24T00:32:48.120Z,0
2017-12-24T00:33:28.599Z,0
2017-12-24T00:34:09.189Z,0
2017-12-24T00:34:49.769Z,0
2017-12-24T00:35:30.733Z,0
2017-12-24T00:36:11.283Z,0
2017-12-24T00:36:53.140Z,0
2017-12-24T00:37:33.211Z,0
2017-12-24T00:38:13.772Z,0
2017-12-24T00:38:54.197Z,0
2017-12-24T00:39:36.110Z,0
2017-12-24T00:40:16.808Z,0
2017-12-24T00:40:57.449Z,0
2017-12-24T00:41:38.404Z,0
2017-12-24T00:42:19.062Z,0
2017-12-24T00:42:59.775Z,0
2017-12-24T00:43:41.025Z,0
2017-12-24T00:44:21.432Z,0
2017-12-24T00:45:01.930Z,0
2017-12-24T00:45:43.308Z,0
2017-12-24T00:46:23.708Z,0
2017-12-24T00:47:04.383Z,0
2017-12-24T00:47:45.568Z,0
2017-12-24T00:48:26.092Z,0
2017-12-24T00:49:06.908Z,0
2017-12-24T00:49:47.524Z,0
2017-12-24T00:50:27.967Z,0
2017-12-24T00:51:08.472Z,0
2017-12-24T00:51:49.000Z,0
2017-12-24T00:52:29.274Z,0
2017-12-24T00:53:09.862Z,0
2017-12-24T00:53:50.419Z,0
2017-12-24T00:54:30.985Z,0
2017-12-24T00:55:11.566Z,0
2017-12-24T00:55:52.061Z,0
2017-12-24T00:56:33.212Z,0
2017-12-24T00:57:13.831Z,0
2017-12-24T00:57:55.964Z,0
2017-12-24T00:58:36.521Z,0
2017-12-24T00:59:17.115Z,0
2017-12-24T00:59:57.423Z,0
2017-12-24T01:00:41.120Z,0
2017-12-24T01:01:22.795Z,0
2017-12-24T01:02:03.747Z,0
2017-12-24T01:02:44.299Z,0
2017-12-24T01:03:24.877Z,0
2017-12-24T01:04:05.109Z,0
2017-12-24T01:04:46.698Z,0
2017-12-24T01:05:26.606Z,0
2017-12-24T01:06:07.401Z,0
2017-12-24T01:06:48.410Z,0
2017-12-24T01:07:29.150Z,0
2017-12-24T01:08:09.497Z,0
2017-12-24T01:08:50.096Z,0
2017-12-24T01:09:30.939Z,0
2017-12-24T01:10:11.437Z,0
2017-12-24T01:10:52.111Z,0
2017-12-24T01:15:24.630Z,0
2017-12-24T01:16:06.122Z,0
2017-12-24T01:16:46.789Z,0
2017-12-24T01:17:27.497Z,0
2017-12-24T01:18:09.548Z,0
2017-12-24T01:18:50.034Z,0
2017-12-24T01:19:31.310Z,0
2017-12-24T01:20:11.821Z,0
2017-12-24T01:20:53.852Z,0
2017-12-24T01:21:34.225Z,0
2017-12-24T01:22:15.580Z,0
2017-12-24T01:22:55.696Z,0
2017-12-24T01:23:36.929Z,0
2017-12-24T01:24:17.177Z,0
2017-12-24T01:24:57.875Z,0
2017-12-24T01:25:38.958Z,0
2017-12-24T01:26:19.538Z,0
2017-12-24T01:27:00.595Z,0
2017-12-24T01:27:41.625Z,0
2017-12-24T01:28:22.732Z,0
2017-12-24T01:29:05.045Z,0
2017-12-24T01:29:46.213Z,0
2017-12-24T01:30:27.609Z,0
2017-12-24T01:31:07.521Z,0
2017-12-24T01:31:48.355Z,0
2017-12-24T01:32:29.080Z,0
2017-12-24T01:33:09.628Z,0
2017-12-24T01:33:50.594Z,0
2017-12-24T01:34:30.734Z,0
2017-12-24T01:35:11.260Z,0
2017-12-24T01:35:51.668Z,0
2017-12-24T01:36:32.123Z,0
2017-12-24T01:37:12.786Z,0
2017-12-24T01:37:53.556Z,0
2017-12-24T01:38:34.173Z,0
2017-12-24T01:39:15.371Z,0
2017-12-24T01:39:55.892Z,0
2017-12-24T01:40:36.210Z,0
2017-12-24T01:41:17.571Z,0
2017-12-24T01:41:58.179Z,0
2017-12-24T01:42:38.665Z,0
2017-12-24T01:43:19.617Z,0
2017-12-24T01:48:16.081Z,0
2017-12-24T01:49:04.778Z,0
2017-12-24T01:49:53.649Z,0
2017-12-24T01:50:49.811Z,0
2017-12-24T01:51:33.434Z,0
2017-12-24T01:54:11.186Z,0
2017-12-24T01:56:54.827Z,0
2017-12-24T01:57:35.232Z,0
2017-12-24T01:58:16.109Z,0
2017-12-24T01:58:56.773Z,0
2017-12-24T01:59:37.388Z,0
2017-12-24T02:00:17.844Z,0
2017-12-24T02:00:58.175Z,0
2017-12-24T02:01:38.810Z,0
2017-12-24T02:02:19.337Z,0
2017-12-24T02:03:00.351Z,0
2017-12-24T02:03:40.994Z,0
2017-12-24T02:04:21.670Z,0
2017-12-24T02:05:02.564Z,0
2017-12-24T02:05:43.216Z,0
2017-12-24T02:06:23.904Z,0
2017-12-24T02:07:04.484Z,0
2017-12-24T02:07:44.899Z,0
2017-12-24T02:08:26.406Z,0
2017-12-24T02:09:07.695Z,0
2017-12-24T02:09:47.460Z,0
2017-12-24T02:10:28.405Z,0
2017-12-24T02:11:09.207Z,0
2017-12-24T02:11:49.673Z,0
2017-12-24T02:12:30.245Z,0
2017-12-24T02:13:10.958Z,0
2017-12-24T02:15:31.339Z,0
2017-12-24T02:16:11.876Z,0
2017-12-24T02:16:52.865Z,0
2017-12-24T02:17:33.841Z,0
2017-12-24T02:18:14.637Z,0
2017-12-24T02:18:55.152Z,0
2017-12-24T02:19:35.423Z,0
2017-12-24T02:20:15.896Z,0
2017-12-24T02:20:56.545Z,0
2017-12-24T02:21:37.142Z,0
2017-12-24T02:22:17.983Z,0
2017-12-24T02:22:58.456Z,0
2017-12-24T02:23:39.009Z,0
2017-12-24T02:24:19.611Z,0
2017-12-24T02:25:00.082Z,0
2017-12-24T02:25:41.229Z,0
2017-12-24T02:26:22.054Z,0
2017-12-24T02:27:03.432Z,0
2017-12-24T02:27:44.004Z,0
2017-12-24T02:28:24.660Z,0
2017-12-24T02:29:05.257Z,0
2017-12-24T02:29:46.205Z,0
2017-12-24T02:30:26.543Z,0
2017-12-24T02:31:07.426Z,0
2017-12-24T02:31:48.506Z,0
2017-12-24T02:32:28.766Z,0
2017-12-24T02:33:09.287Z,0
2017-12-24T02:33:49.663Z,0
2017-12-24T02:34:30.970Z,0
2017-12-24T02:35:11.902Z,0
2017-12-24T02:35:52.373Z,0
2017-12-24T02:36:32.907Z,0
2017-12-24T02:37:13.805Z,0
2017-12-24T02:37:54.542Z,0
2017-12-24T02:38:36.677Z,0
2017-12-24T02:39:19.536Z,0
2017-12-24T02:39:59.992Z,0
2017-12-24T02:40:40.433Z,0
2017-12-24T02:41:21.589Z,0
2017-12-24T02:42:02.570Z,0
2017-12-24T02:42:43.348Z,0
2017-12-24T02:43:23.386Z,0
2017-12-24T02:44:03.943Z,0
2017-12-24T02:44:44.757Z,0
2017-12-24T02:45:25.911Z,0
2017-12-24T02:46:06.379Z,0
2017-12-24T02:46:47.010Z,0
2017-12-24T02:47:27.991Z,0
2017-12-24T02:48:08.434Z,0
2017-12-24T02:48:48.849Z,0
2017-12-24T02:49:29.667Z,0
2017-12-24T02:50:10.645Z,0
2017-12-24T02:50:51.859Z,0
2017-12-24T02:51:31.392Z,0
2017-12-24T02:52:11.910Z,0
2017-12-24T02:52:52.240Z,0
2017-12-24T02:53:33.089Z,0
2017-12-24T02:54:13.464Z,0
2017-12-24T02:54:54.411Z,0
2017-12-24T02:55:35.072Z,0
2017-12-24T02:56:15.688Z,0
2017-12-24T02:56:56.345Z,0
2017-12-24T02:57:37.299Z,0
2017-12-24T02:58:17.834Z,0
2017-12-24T02:58:58.596Z,0
2017-12-24T02:59:39.566Z,0
2017-12-24T03:00:20.271Z,0
2017-12-24T03:01:00.774Z,0
2017-12-24T03:01:41.486Z,0
2017-12-24T03:02:22.191Z,0
2017-12-24T03:03:02.545Z,0
2017-12-24T03:03:43.252Z,0
2017-12-24T03:04:24.216Z,0
2017-12-24T03:05:05.379Z,0
2017-12-24T03:05:46.108Z,0
2017-12-24T03:06:26.591Z,0
2017-12-24T03:07:06.961Z,0
2017-12-24T03:07:48.018Z,0
2017-12-24T03:08:29.012Z,0
2017-12-24T03:09:09.741Z,0
2017-12-24T03:09:50.214Z,0
2017-12-24T03:10:30.943Z,0
2017-12-24T03:11:12.875Z,0
2017-12-24T03:11:53.540Z,0
2017-12-24T03:12:35.223Z,0
2017-12-24T03:13:15.839Z,0
2017-12-24T03:13:56.653Z,0
2017-12-24T03:14:37.353Z,0
2017-12-24T03:15:17.855Z,0
2017-12-24T03:15:58.729Z,0
2017-12-24T03:16:39.166Z,0
2017-12-24T03:17:19.543Z,0
2017-12-24T03:18:00.184Z,0
2017-12-24T03:18:40.495Z,0
2017-12-24T03:19:22.614Z,0
2017-12-24T03:20:03.412Z,0
2017-12-24T03:20:43.964Z,0
2017-12-24T03:23:08.692Z,0
2017-12-24T03:23:50.434Z,0
2017-12-24T03:24:30.739Z,0
2017-12-24T03:25:11.638Z,0
2017-12-24T03:27:49.750Z,0
2017-12-24T03:28:30.295Z,0
2017-12-24T03:29:11.185Z,0
2017-12-24T03:29:51.751Z,0
2017-12-24T03:30:32.151Z,0
2017-12-24T03:31:12.674Z,0
2017-12-24T03:31:53.443Z,0
2017-12-24T03:32:33.674Z,0
2017-12-24T03:33:14.093Z,0
2017-12-24T03:33:55.081Z,0
2017-12-24T03:34:35.875Z,0
2017-12-24T03:35:17.353Z,0
2017-12-24T03:35:58.305Z,0
2017-12-24T03:36:38.061Z,0
2017-12-24T03:37:18.330Z,0
2017-12-24T03:37:58.791Z,0
2017-12-24T03:38:39.978Z,0
2017-12-24T03:39:20.430Z,0
2017-12-24T03:40:00.951Z,0
2017-12-24T03:40:41.465Z,0
2017-12-24T03:41:22.134Z,0
2017-12-24T03:42:02.892Z,0
2017-12-24T03:42:43.295Z,0
2017-12-24T03:43:24.174Z,0
2017-12-24T03:44:05.290Z,0
2017-12-24T03:44:46.111Z,0
2017-12-24T03:45:26.794Z,0
2017-12-24T03:46:07.367Z,0
2017-12-24T03:46:48.336Z,0
2017-12-24T03:47:29.888Z,0
2017-12-24T03:48:10.286Z,0
2017-12-24T03:48:50.655Z,0
2017-12-24T03:49:31.295Z,0
2017-12-24T03:50:11.886Z,0
2017-12-24T03:50:53.562Z,0
2017-12-24T03:51:34.468Z,0
2017-12-24T03:52:15.201Z,0
2017-12-24T03:52:55.496Z,0
2017-12-24T03:53:35.842Z,0
2017-12-24T03:54:16.606Z,0
2017-12-24T03:54:57.294Z,0
2017-12-24T03:55:38.170Z,0
2017-12-24T03:56:18.573Z,0
2017-12-24T03:56:59.472Z,0
2017-12-24T03:57:40.333Z,0
2017-12-24T03:58:20.887Z,0
2017-12-24T03:59:01.757Z,0
2017-12-24T03:59:42.787Z,0
2017-12-24T04:00:23.353Z,0
2017-12-24T04:01:03.719Z,0
2017-12-24T04:41:42.427Z,0
2017-12-24T04:42:26.334Z,0
2017-12-24T04:43:07.809Z,0
2017-12-24T04:43:50.401Z,0
2017-12-24T04:44:31.012Z,0
2017-12-24T04:45:11.741Z,0
2017-12-24T04:45:52.453Z,0
2017-12-24T04:46:35.060Z,0
2017-12-24T04:47:15.866Z,0
2017-12-24T04:47:59.667Z,0
2017-12-24T04:48:44.045Z,0
2017-12-24T04:49:24.778Z,0
2017-12-24T04:50:08.685Z,0
2017-12-24T04:50:56.301Z,0
2017-12-24T04:51:36.933Z,0
2017-12-24T04:52:17.312Z,0
2017-12-24T04:52:57.905Z,0
2017-12-24T04:53:38.595Z,0
2017-12-24T04:54:19.450Z,0
2017-12-24T04:54:59.446Z,0
2017-12-24T04:55:39.950Z,0
2017-12-24T04:56:20.796Z,0
2017-12-24T04:57:02.937Z,0
2017-12-24T04:57:43.377Z,0
2017-12-24T04:58:23.875Z,0
2017-12-24T04:59:04.243Z,0
2017-12-24T04:59:44.867Z,0
2017-12-24T05:00:25.799Z,0
2017-12-24T05:01:06.307Z,0
2017-12-24T05:01:48.188Z,0
2017-12-24T05:02:29.142Z,0
2017-12-24T05:08:01.650Z,0
2017-12-24T05:08:43.028Z,0
2017-12-24T05:09:23.714Z,0
2017-12-24T05:10:04.067Z,0
2017-12-24T05:10:44.629Z,0
2017-12-24T05:11:25.250Z,0
2017-12-24T05:12:06.332Z,0
2017-12-24T05:12:46.844Z,0
2017-12-24T05:13:27.174Z,0
2017-12-24T05:14:07.976Z,0
2017-12-24T05:14:48.503Z,0
2017-12-24T05:15:29.026Z,0
2017-12-24T05:16:11.017Z,0
2017-12-24T05:16:52.099Z,0
2017-12-24T05:17:33.423Z,0
2017-12-24T05:18:14.398Z,0
2017-12-24T05:18:54.859Z,0
2017-12-24T05:19:35.701Z,0
2017-12-24T05:20:16.552Z,0
2017-12-24T05:20:57.411Z,0
2017-12-24T05:21:37.901Z,0
2017-12-24T05:22:18.538Z,0
2017-12-24T05:22:58.863Z,0
2017-12-24T05:23:39.347Z,0
2017-12-24T05:24:20.441Z,0
2017-12-24T05:25:00.923Z,0
2017-12-24T05:25:41.424Z,0
2017-12-24T05:26:22.128Z,0
2017-12-24T05:27:02.722Z,0
2017-12-24T05:27:43.396Z,0
2017-12-24T05:28:24.186Z,0
2017-12-24T05:29:04.529Z,0
2017-12-24T05:29:45.310Z,0
2017-12-24T05:30:25.650Z,0
2017-12-24T05:31:06.487Z,0
2017-12-24T05:31:47.003Z,0
2017-12-24T05:32:27.846Z,0
2017-12-24T05:33:09.232Z,0
2017-12-24T05:33:49.297Z,0
2017-12-24T05:34:30.296Z,0
2017-12-24T05:35:11.279Z,0
2017-12-24T05:35:53.365Z,0
2017-12-24T05:36:33.794Z,0
2017-12-24T05:37:14.096Z,0
2017-12-24T05:37:54.644Z,0
2017-12-24T05:38:35.120Z,0
2017-12-24T05:39:17.143Z,0
2017-12-24T05:39:57.500Z,0
2017-12-24T05:40:38.209Z,0
2017-12-24T05:41:18.576Z,0
2017-12-24T05:41:59.529Z,0
2017-12-24T05:42:39.901Z,0
2017-12-24T05:43:20.379Z,0
2017-12-24T05:44:00.762Z,0
2017-12-24T05:44:41.996Z,0
2017-12-24T05:45:22.469Z,0
2017-12-24T05:46:03.576Z,0
2017-12-24T05:46:44.935Z,0
2017-12-24T05:47:25.465Z,0
2017-12-24T05:48:06.036Z,0
2017-12-24T05:48:46.611Z,0
2017-12-24T05:49:30.705Z,0
2017-12-24T05:50:11.362Z,0
2017-12-24T05:50:51.480Z,0
2017-12-24T05:51:31.896Z,0
2017-12-24T05:52:14.544Z,0
2017-12-24T05:52:55.225Z,0
2017-12-24T05:53:35.805Z,0
2017-12-24T05:54:16.647Z,0
2017-12-24T05:54:57.164Z,0
2017-12-24T05:55:38.055Z,0
2017-12-24T05:56:18.665Z,0
2017-12-24T05:56:58.898Z,0
2017-12-24T06:01:38.231Z,0
2017-12-24T06:02:18.973Z,0
2017-12-24T06:03:00.079Z,0
2017-12-24T06:03:40.642Z,0
2017-12-24T06:04:22.755Z,0
2017-12-24T06:05:03.938Z,0
2017-12-24T06:05:43.602Z,0
2017-12-24T06:06:23.940Z,0
2017-12-24T06:07:04.562Z,0
2017-12-24T06:07:46.174Z,0
2017-12-24T06:08:27.412Z,0
2017-12-24T06:09:07.449Z,0
2017-12-24T06:09:47.873Z,0
2017-12-24T06:10:28.286Z,0
2017-12-24T06:11:08.843Z,0
2017-12-24T06:11:49.661Z,0
2017-12-24T06:12:30.226Z,0
2017-12-24T06:13:11.104Z,0
2017-12-24T06:13:51.909Z,0
2017-12-24T06:14:32.438Z,0
2017-12-24T06:15:13.255Z,0
2017-12-24T06:15:54.495Z,0
2017-12-24T06:16:35.073Z,0
2017-12-24T06:17:16.013Z,0
2017-12-24T06:17:56.682Z,0
2017-12-24T06:18:37.232Z,0
2017-12-24T06:19:17.788Z,0
2017-12-24T06:19:58.454Z,0
2017-12-24T06:20:39.440Z,0
2017-12-24T06:21:20.617Z,0
2017-12-24T06:22:01.013Z,0
2017-12-24T06:22:41.721Z,0
2017-12-24T06:23:22.186Z,0
2017-12-24T06:24:02.674Z,0
2017-12-24T06:24:43.820Z,0
2017-12-24T06:25:24.211Z,0
2017-12-24T06:26:04.743Z,0
2017-12-24T06:26:45.056Z,0
2017-12-24T06:27:25.535Z,0
2017-12-24T06:28:06.060Z,0
2017-12-24T06:28:46.935Z,0
2017-12-24T06:29:27.057Z,0
2017-12-24T06:30:08.295Z,0
2017-12-24T06:30:49.374Z,0
2017-12-24T06:31:29.757Z,0
2017-12-24T06:32:10.575Z,0
2017-12-24T06:32:51.217Z,0
2017-12-24T06:33:31.570Z,0
2017-12-24T06:34:12.264Z,0
2017-12-24T06:34:52.843Z,0
2017-12-24T06:35:33.504Z,0
2017-12-24T06:36:14.174Z,0
2017-12-24T06:36:54.829Z,0
2017-12-24T06:37:36.248Z,0
2017-12-24T06:38:16.849Z,0
2017-12-24T06:38:57.738Z,0
2017-12-24T06:39:38.005Z,0
2017-12-24T06:40:18.358Z,0
2017-12-24T06:40:59.279Z,0
2017-12-24T06:41:39.788Z,0
2017-12-24T06:42:20.553Z,0
2017-12-24T06:43:00.963Z,0
2017-12-24T06:43:41.940Z,0
2017-12-24T06:44:22.534Z,0
2017-12-24T06:45:03.909Z,0
2017-12-24T06:45:44.409Z,0
2017-12-24T06:46:24.935Z,0
2017-12-24T06:47:06.121Z,0
2017-12-24T06:47:46.369Z,0
2017-12-24T06:48:27.264Z,0
2017-12-24T06:49:08.434Z,0
2017-12-24T06:49:49.062Z,0
2017-12-24T06:50:29.722Z,0
2017-12-24T06:51:10.215Z,0
2017-12-24T06:51:51.567Z,0
2017-12-24T06:52:32.041Z,0
2017-12-24T06:53:13.226Z,0
2017-12-24T06:53:53.882Z,0
2017-12-24T06:54:35.067Z,0
2017-12-24T06:55:15.445Z,0
2017-12-24T06:55:56.489Z,0
2017-12-24T06:56:36.944Z,0
2017-12-24T06:57:17.680Z,0
2017-12-24T06:57:58.285Z,0
2017-12-24T06:58:39.059Z,0
2017-12-24T07:00:58.626Z,0
2017-12-24T07:01:40.251Z,0
2017-12-24T07:02:20.674Z,0
2017-12-24T07:03:02.421Z,0
2017-12-24T07:03:43.315Z,0
2017-12-24T07:04:23.903Z,0
2017-12-24T07:05:04.184Z,0
2017-12-24T07:05:44.760Z,0
2017-12-24T07:06:25.229Z,0
2017-12-24T07:07:05.969Z,0
2017-12-24T07:07:46.881Z,0
2017-12-24T07:08:27.288Z,0
2017-12-24T07:09:07.743Z,0
2017-12-24T07:09:48.098Z,0
2017-12-24T07:10:28.846Z,0
2017-12-24T07:11:10.198Z,0
2017-12-24T07:11:51.107Z,0
2017-12-24T07:12:31.424Z,0
2017-12-24T07:13:11.745Z,0
2017-12-24T07:13:52.342Z,0
2017-12-24T07:14:32.672Z,0
2017-12-24T07:15:13.369Z,0
2017-12-24T07:15:54.201Z,0
2017-12-24T07:17:56.716Z,4
2017-12-24T07:18:35.673Z,4
2017-12-24T07:19:16.236Z,4
2017-12-24T07:19:56.745Z,0
2017-12-24T07:20:37.435Z,0
2017-12-24T07:21:17.913Z,0
2017-12-24T07:21:58.211Z,0
2017-12-24T07:22:38.635Z,0
2017-12-24T07:23:19.466Z,4
2017-12-24T07:24:00.181Z,4
2017-12-24T07:24:40.231Z,4
2017-12-24T07:25:20.614Z,4
2017-12-24T07:26:01.090Z,4
2017-12-24T07:28:28.616Z,4
2017-12-24T07:29:18.140Z,4
2017-12-24T07:33:43.856Z,4
2017-12-24T07:34:23.992Z,8
2017-12-24T07:35:04.293Z,8
2017-12-24T07:35:45.235Z,8
2017-12-24T07:36:25.547Z,8
2017-12-24T07:37:06.202Z,8
2017-12-24T07:37:47.162Z,8
2017-12-24T07:38:27.673Z,8
2017-12-24T07:39:08.552Z,8
2017-12-24T07:39:49.070Z,8
2017-12-24T07:40:29.470Z,8
2017-12-24T07:41:09.974Z,8
2017-12-24T07:41:50.384Z,12
2017-12-24T07:42:30.967Z,12
2017-12-24T07:43:11.398Z,12
2017-12-24T07:43:51.936Z,12
2017-12-24T07:44:32.741Z,12
2017-12-24T07:45:13.313Z,12
2017-12-24T07:45:53.764Z,16
2017-12-24T07:46:34.265Z,12
2017-12-24T07:47:14.887Z,12
2017-12-24T07:47:55.763Z,12
2017-12-24T07:48:36.204Z,12
2017-12-24T07:49:17.163Z,16
2017-12-24T07:49:57.615Z,16
2017-12-24T07:50:38.287Z,16
2017-12-24T07:51:18.518Z,16
2017-12-24T07:51:59.328Z,20
2017-12-24T07:52:39.713Z,20
2017-12-24T07:53:20.363Z,20
2017-12-24T07:54:02.053Z,20
2017-12-24T07:54:42.673Z,20
2017-12-24T07:55:23.944Z,24
2017-12-24T07:56:04.919Z,24
2017-12-24T07:56:45.330Z,24
2017-12-24T07:57:25.838Z,24
2017-12-24T07:58:06.654Z,24
2017-12-24T07:58:47.083Z,28
2017-12-24T07:59:28.104Z,28
2017-12-24T08:00:08.918Z,28
2017-12-24T08:00:49.655Z,28
2017-12-24T08:01:30.657Z,28
2017-12-24T08:02:11.301Z,28
2017-12-24T08:02:52.122Z,32
2017-12-24T08:03:32.497Z,36
2017-12-24T08:04:13.216Z,32
2017-12-24T08:04:53.568Z,32
2017-12-24T08:05:35.862Z,28
2017-12-24T08:06:17.569Z,32
2017-12-24T08:06:58.340Z,32
2017-12-24T08:07:38.633Z,32
2017-12-24T08:08:19.189Z,36
2017-12-24T08:08:59.866Z,36
2017-12-24T08:09:40.815Z,36
2017-12-24T08:10:21.791Z,36
2017-12-24T08:11:02.592Z,40
2017-12-24T08:11:43.062Z,44
2017-12-24T08:12:23.752Z,40
2017-12-24T08:13:04.231Z,40
2017-12-24T08:13:45.652Z,44
2017-12-24T08:14:26.253Z,44
2017-12-24T08:15:07.026Z,44
2017-12-24T08:15:47.485Z,40
2017-12-24T08:16:28.248Z,40
2017-12-24T08:17:08.830Z,44
2017-12-24T08:17:49.746Z,40
2017-12-24T08:18:30.576Z,44
2017-12-24T08:19:11.062Z,44
2017-12-24T08:19:52.129Z,40
2017-12-24T08:20:32.556Z,40
2017-12-24T08:21:13.453Z,48
2017-12-24T08:21:53.853Z,48
2017-12-24T08:23:57.209Z,44
2017-12-24T08:24:42.350Z,48
2017-12-24T08:25:22.829Z,52
2017-12-24T08:26:03.203Z,56
2017-12-24T08:26:44.220Z,60
2017-12-24T08:27:25.702Z,68
2017-12-24T08:28:06.345Z,68
2017-12-24T08:28:47.540Z,60
2017-12-24T08:29:28.158Z,60
2017-12-24T08:30:10.593Z,60
2017-12-24T08:30:52.565Z,60
2017-12-24T08:31:32.961Z,72
2017-12-24T08:32:14.198Z,72
2017-12-24T08:32:55.260Z,72
2017-12-24T08:33:35.772Z,68
2017-12-24T08:36:13.426Z,72
2017-12-24T08:36:52.596Z,80
2017-12-24T08:37:33.335Z,80
2017-12-24T08:38:14.175Z,84
2017-12-24T08:38:54.314Z,88
2017-12-24T08:39:34.794Z,92
2017-12-24T08:40:16.743Z,92
2017-12-24T08:40:57.386Z,100
2017-12-24T08:41:38.662Z,96
2017-12-24T08:42:19.069Z,100
2017-12-24T08:42:59.964Z,92
2017-12-24T08:43:40.518Z,92
2017-12-24T08:44:21.233Z,96
2017-12-24T08:45:01.557Z,104
2017-12-24T08:45:42.014Z,96
2017-12-24T08:46:22.364Z,100
2017-12-24T08:47:04.405Z,112
2017-12-24T08:47:45.005Z,116
2017-12-24T08:48:25.540Z,136
2017-12-24T08:49:06.275Z,144
2017-12-24T08:49:46.792Z,136
2017-12-24T08:50:27.130Z,132
2017-12-24T08:51:07.837Z,136
2017-12-24T08:51:48.963Z,148
2017-12-24T08:52:29.294Z,124
2017-12-24T08:53:10.036Z,128
2017-12-24T08:53:51.744Z,140
2017-12-24T08:54:31.866Z,124
2017-12-24T08:55:12.722Z,116
2017-12-24T08:55:53.975Z,104
2017-12-24T08:56:34.379Z,104
2017-12-24T08:57:14.740Z,120
2017-12-24T08:57:55.340Z,120
2017-12-24T08:58:35.757Z,124
2017-12-24T08:59:16.333Z,112
2017-12-24T08:59:56.660Z,104
2017-12-24T09:00:36.980Z,100
2017-12-24T09:01:17.326Z,132
2017-12-24T09:01:58.618Z,124
2017-12-24T09:02:38.579Z,140
2017-12-24T09:03:19.384Z,140
2017-12-24T09:04:00.021Z,140
2017-12-24T09:04:41.073Z,128
2017-12-24T09:05:21.555Z,120
2017-12-24T09:06:02.081Z,112
2017-12-24T09:06:42.616Z,116
2017-12-24T09:07:23.404Z,112
2017-12-24T09:08:03.918Z,124
2017-12-24T09:08:44.497Z,112
2017-12-24T09:09:25.055Z,108
2017-12-24T09:10:05.295Z,116
2017-12-24T09:10:46.228Z,116
2017-12-24T09:11:26.857Z,136
2017-12-24T09:17:19.028Z,164
2017-12-24T09:17:59.306Z,164
2017-12-24T09:18:40.357Z,152
2017-12-24T09:19:23.631Z,160
2017-12-24T09:20:05.989Z,160
2017-12-24T09:20:51.078Z,176
2017-12-24T09:21:32.228Z,172
2017-12-24T09:22:12.634Z,188
2017-12-24T09:22:53.054Z,212
2017-12-24T09:23:33.557Z,240
2017-12-24T09:24:14.545Z,240
2017-12-24T09:24:55.032Z,248
2017-12-24T09:25:35.499Z,256
2017-12-24T09:26:16.846Z,348
2017-12-24T09:26:58.405Z,332
2017-12-24T09:27:43.250Z,356
2017-12-24T09:28:26.754Z,372
2017-12-24T09:29:07.175Z,344
2017-12-24T09:29:48.290Z,300
2017-12-24T09:30:29.770Z,328
2017-12-24T09:31:13.337Z,412
2017-12-24T09:31:54.037Z,384
2017-12-24T09:32:35.109Z,424
2017-12-24T09:33:16.073Z,400
2017-12-24T09:33:56.550Z,412
2017-12-24T09:34:37.265Z,392
2017-12-24T09:35:18.364Z,496
2017-12-24T09:35:59.075Z,428
2017-12-24T09:36:41.615Z,480
2017-12-24T09:43:18.528Z,308
2017-12-24T09:44:01.917Z,320
2017-12-24T09:44:43.760Z,320
2017-12-24T09:45:25.710Z,304
2017-12-24T09:46:06.377Z,332
2017-12-24T09:46:47.945Z,356
2017-12-24T09:47:28.763Z,396
2017-12-24T09:49:49.401Z,448
2017-12-24T09:50:30.387Z,420
2017-12-24T09:51:11.477Z,436
2017-12-24T09:51:55.259Z,416
2017-12-24T09:52:35.712Z,396
2017-12-24T09:53:16.136Z,388
2017-12-24T09:53:59.053Z,404
2017-12-24T09:54:46.817Z,436
2017-12-24T09:55:27.089Z,432
2017-12-24T09:56:08.525Z,396
2017-12-24T09:56:51.418Z,404
2017-12-24T09:57:32.660Z,496
2017-12-24T09:58:14.811Z,472
2017-12-24T09:58:55.426Z,476
2017-12-24T09:59:36.242Z,508
2017-12-24T10:00:16.852Z,504
2017-12-24T10:00:57.899Z,480
2017-12-24T10:01:38.388Z,492
2017-12-24T10:02:21.721Z,444
2017-12-24T10:03:02.542Z,456
2017-12-24T10:42:08.943Z,360
2017-12-24T10:42:47.706Z,392
2017-12-24T10:45:18.104Z,324
2017-12-24T10:45:58.670Z,324
2017-12-24T10:46:39.206Z,348
2017-12-24T10:47:20.229Z,380
2017-12-24T10:48:00.989Z,360
2017-12-24T10:48:43.931Z,332
2017-12-24T10:49:24.500Z,300
2017-12-24T10:50:05.149Z,264
2017-12-24T10:50:46.266Z,292
2017-12-24T10:51:26.526Z,276
2017-12-24T10:52:07.320Z,276
2017-12-24T10:52:48.453Z,296
2017-12-24T10:53:29.416Z,312
2017-12-24T10:54:09.942Z,312
2017-12-24T10:54:50.697Z,320
2017-12-24T10:55:32.074Z,292
2017-12-24T10:56:12.497Z,304
2017-12-24T10:56:52.992Z,364
2017-12-24T10:57:33.581Z,396
2017-12-24T10:58:13.877Z,416
2017-12-24T10:58:56.166Z,444
2017-12-24T10:59:36.905Z,512
2017-12-24T11:00:17.348Z,528
2017-12-24T11:00:58.660Z,548
2017-12-24T11:01:38.866Z,504
2017-12-24T11:02:19.804Z,512
2017-12-24T11:03:00.414Z,500
2017-12-24T11:03:41.171Z,504
2017-12-24T11:04:21.686Z,448
2017-12-24T11:05:02.474Z,416
2017-12-24T11:05:42.690Z,412
2017-12-24T11:06:23.742Z,420
2017-12-24T11:07:03.764Z,420
2017-12-24T11:07:44.469Z,404
2017-12-24T11:08:25.206Z,404
2017-12-24T11:09:06.118Z,392
2017-12-24T11:09:47.223Z,376
2017-12-24T11:10:27.999Z,392
2017-12-24T11:11:09.010Z,384
2017-12-24T11:11:49.409Z,368
2017-12-24T11:12:30.175Z,352
2017-12-24T11:13:10.693Z,356
2017-12-24T11:13:51.642Z,388
2017-12-24T11:14:32.748Z,388
2017-12-24T11:15:13.276Z,424
2017-12-24T11:15:53.832Z,408
2017-12-24T11:16:34.605Z,408
2017-12-24T11:17:15.083Z,404
2017-12-24T11:17:55.880Z,420
2017-12-24T11:18:37.020Z,416
2017-12-24T11:19:17.398Z,448
2017-12-24T11:19:58.056Z,424
2017-12-24T11:20:38.419Z,420
2017-12-24T11:21:19.318Z,420
2017-12-24T11:21:59.567Z,432
2017-12-24T11:22:40.115Z,416
2017-12-24T11:23:20.940Z,428
2017-12-24T11:24:01.239Z,392
2017-12-24T11:24:41.421Z,388
2017-12-24T11:25:22.373Z,396
2017-12-24T11:26:02.783Z,388
2017-12-24T11:26:43.628Z,376
2017-12-24T11:27:24.810Z,400
2017-12-24T11:28:05.298Z,428
2017-12-24T11:28:45.826Z,440
2017-12-24T11:29:26.771Z,444
2017-12-24T11:30:07.184Z,448
2017-12-24T11:30:47.656Z,480
2017-12-24T11:31:28.430Z,496
2017-12-24T11:32:08.990Z,476
2017-12-24T11:32:49.606Z,464
2017-12-24T11:33:30.208Z,464
2017-12-24T11:34:10.658Z,460
2017-12-24T11:36:42.972Z,488
2017-12-24T11:37:25.151Z,496
2017-12-24T11:38:05.704Z,532
2017-12-24T11:38:46.203Z,536
2017-12-24T11:39:26.604Z,592
2017-12-24T11:40:07.605Z,492
2017-12-24T11:40:48.038Z,436
2017-12-24T11:41:28.797Z,408
2017-12-24T11:42:09.757Z,380
2017-12-24T11:42:50.525Z,400
2017-12-24T11:43:30.423Z,380
2017-12-24T11:44:11.099Z,388
2017-12-24T11:44:52.056Z,416
2017-12-24T11:45:32.226Z,436
2017-12-24T11:46:12.862Z,420
2017-12-24T11:46:53.270Z,432
2017-12-24T11:47:33.959Z,420
2017-12-24T11:48:14.346Z,456
2017-12-24T11:48:54.860Z,436
2017-12-24T11:51:30.466Z,412
2017-12-24T11:52:11.097Z,408
2017-12-24T11:52:52.564Z,424
2017-12-24T11:53:33.094Z,432
2017-12-24T11:54:13.889Z,416
2017-12-24T11:54:54.295Z,420
2017-12-24T11:57:13.499Z,452
2017-12-24T11:57:54.724Z,428
2017-12-24T11:58:35.738Z,436
2017-12-24T11:59:16.588Z,456
2017-12-24T11:59:57.141Z,432
2017-12-24T12:00:38.004Z,392
2017-12-24T12:01:18.386Z,368
2017-12-24T12:01:58.743Z,364
2017-12-24T12:02:39.136Z,384
2017-12-24T12:03:19.819Z,416
2017-12-24T12:04:03.018Z,420
2017-12-24T12:04:43.659Z,400
2017-12-24T12:05:24.077Z,388
2017-12-24T12:06:05.714Z,372
2017-12-24T12:06:45.132Z,408
2017-12-24T12:07:26.498Z,400
2017-12-24T12:08:06.269Z,376
2017-12-24T12:08:46.996Z,352
2017-12-24T12:09:28.082Z,332
2017-12-24T12:10:08.601Z,340
2017-12-24T12:10:49.118Z,360